Time;durP1;ratioP1;P1;durP2;ratioP2;P2;SDS_P1;SDS_P2;PMS_P1;PMS_P2;Temp;Humidity;BMP_temperature;BMP_pressure;BME280_temperature;BME280_humidity;BME280_pressure;Samples;Min_cycle;Max_cycle;Signal;HPM_P1;HPM_P2
2022/06/12 00:00:36;;;;;;;9.18;5.07;;;;;;;17.87;82.80;100124.53;5092821;28;20528;-79
2022/06/12 00:03:04;;;;;;;9.30;5.60;;;;;;;17.82;83.27;100113.44;5092273;28;20487;-79
2022/06/12 00:05:32;;;;;;;5.72;4.97;;;;;;;17.85;84.06;100119.34;5093302;28;20099;-79
2022/06/12 00:07:58;;;;;;;6.30;5.13;;;;;;;17.83;84.28;100117.78;5092320;28;20032;-79
2022/06/12 00:10:23;;;;;;;9.02;5.13;;;;;;;17.82;84.87;100116.09;5092763;28;20425;-79
2022/06/12 00:12:49;;;;;;;6.18;5.22;;;;;;;17.82;85.38;100116.09;5092603;28;20070;-79
2022/06/12 00:15:19;;;;;;;8.77;5.13;;;;;;;17.77;84.72;100112.94;5092280;28;20111;-79
2022/06/12 00:17:45;;;;;;;5.40;4.70;;;;;;;17.76;85.20;100112.09;5092704;28;20032;-79
2022/06/12 00:20:13;;;;;;;8.77;5.32;;;;;;;17.80;85.03;100113.56;5092457;28;20032;-79
2022/06/12 00:22:38;;;;;;;6.90;5.28;;;;;;;17.76;84.42;100114.72;5091138;28;20031;-79
2022/06/12 00:25:09;;;;;;;7.18;5.45;;;;;;;17.78;84.54;100122.50;5092240;28;20401;-79
2022/06/12 00:27:35;;;;;;;7.00;5.47;;;;;;;17.72;85.49;100115.84;5092343;28;20117;-79
2022/06/12 00:30:00;;;;;;;6.25;5.22;;;;;;;17.66;85.80;100109.22;5092078;28;20479;-79
2022/06/12 00:32:28;;;;;;;9.30;5.18;;;;;;;17.69;84.83;100114.25;5074375;28;20055;-79
2022/06/12 00:34:54;;;;;;;7.55;5.30;;;;;;;17.59;84.83;100100.06;5092355;28;20031;-79
2022/06/12 00:37:23;;;;;;;7.10;5.07;;;;;;;17.63;85.37;100105.97;5091950;28;20043;-79
2022/06/12 00:39:52;;;;;;;7.22;4.97;;;;;;;17.59;85.90;100113.22;5092263;28;20020;-79
2022/06/12 00:42:33;;;;;;;5.65;4.68;;;;;;;17.54;86.53;100103.97;5091915;28;20031;-79
2022/06/12 00:45:20;;;;;;;7.20;5.07;;;;;;;17.50;86.91;100108.59;5092319;28;20020;-79
2022/06/12 00:47:46;;;;;;;6.90;5.65;;;;;;;17.39;87.69;100090.88;5092135;28;20024;-79
2022/06/12 00:50:11;;;;;;;9.38;5.80;;;;;;;17.37;88.41;100094.56;5092163;28;20375;-79
2022/06/12 00:52:46;;;;;;;8.20;5.85;;;;;;;17.38;88.95;100102.34;5073891;28;20061;-79
2022/06/12 00:55:18;;;;;;;9.02;6.35;;;;;;;17.32;89.94;100094.88;5090534;28;20410;-79
2022/06/12 00:57:45;;;;;;;9.02;5.93;;;;;;;17.32;90.28;100099.28;5092132;28;20032;-79
2022/06/12 01:00:14;;;;;;;8.27;6.03;;;;;;;17.30;90.17;100091.50;5091876;28;20639;-79
2022/06/12 01:02:41;;;;;;;9.45;6.50;;;;;;;17.34;89.74;100089.50;5091994;28;20028;-79
2022/06/12 01:07:58;;;;;;;6.43;5.70;;;;;;;17.30;90.04;100078.34;5091738;28;20058;-79
2022/06/12 01:10:28;;;;;;;6.55;5.85;;;;;;;17.26;89.97;100076.00;5091753;28;20036;-79
2022/06/12 01:13:10;;;;;;;7.35;6.20;;;;;;;17.30;89.60;100075.69;5073717;28;20073;-79
2022/06/12 01:15:42;;;;;;;8.52;6.60;;;;;;;17.32;89.57;100080.84;5090414;28;20035;-79
2022/06/12 01:18:11;;;;;;;10.57;6.78;;;;;;;17.39;90.00;100082.97;5091866;28;20479;-79
2022/06/12 01:20:46;;;;;;;7.47;5.90;;;;;;;17.39;90.20;100093.50;5096100;28;20467;-79
2022/06/12 01:23:23;;;;;;;7.38;6.25;;;;;;;17.42;90.31;100093.31;5095656;28;20024;-79
2022/06/12 01:26:25;;;;;;;8.60;6.32;;;;;;;17.42;89.96;100088.03;5077725;28;20028;-79
2022/06/12 01:28:50;;;;;;;8.73;6.90;;;;;;;17.36;89.66;100077.06;5095953;28;20417;-79
2022/06/12 01:31:37;;;;;;;7.55;6.03;;;;;;;17.40;89.59;100086.44;5095577;28;20032;-79
2022/06/12 01:34:07;;;;;;;8.57;7.05;;;;;;;17.39;89.29;100079.50;5095664;28;20123;-79
2022/06/12 01:36:43;;;;;;;11.52;6.65;;;;;;;17.42;88.93;100080.13;5095428;28;20513;-79
2022/06/12 01:39:37;;;;;;;9.45;6.70;;;;;;;17.43;89.61;100086.25;5095428;28;20050;-79
2022/06/12 01:42:12;;;;;;;9.13;6.80;;;;;;;17.43;89.93;100078.34;5095652;28;20028;-79
2022/06/12 01:44:54;;;;;;;10.45;7.00;;;;;;;17.40;90.55;100076.78;5095420;28;20030;-79
2022/06/12 01:47:39;;;;;;;10.65;6.45;;;;;;;17.38;91.11;100072.56;5093672;28;20429;-79
2022/06/12 01:50:11;;;;;;;8.80;6.68;;;;;;;17.37;91.19;100070.88;5095043;28;20106;-79
2022/06/12 01:52:44;;;;;;;7.68;6.75;;;;;;;17.35;91.70;100070.97;5095538;28;20064;-79
2022/06/12 01:55:39;;;;;;;6.93;6.20;;;;;;;17.32;91.74;100068.56;5095210;28;20379;-79
2022/06/12 01:58:24;;;;;;;10.23;6.70;;;;;;;17.31;91.93;100074.75;5095035;28;20499;-79
2022/06/12 02:00:58;;;;;;;7.80;6.45;;;;;;;17.27;92.43;100075.91;5095247;28;20039;-79
2022/06/12 02:03:33;;;;;;;9.02;6.97;;;;;;;17.24;92.60;100073.50;5094572;28;20522;-78
2022/06/12 02:06:17;;;;;;;9.50;7.00;;;;;;;17.20;92.08;100077.28;5094972;28;20028;-78
2022/06/12 02:08:51;;;;;;;8.57;6.82;;;;;;;17.08;91.88;100068.41;5095183;28;20254;-79
2022/06/12 02:14:14;;;;;;;11.13;7.10;;;;;;;17.07;92.12;100076.41;5094603;28;20039;-79
2022/06/12 02:16:45;;;;;;;8.82;7.78;;;;;;;17.05;92.48;100075.66;5076791;28;20036;-79
2022/06/12 02:19:16;;;;;;;9.93;7.97;;;;;;;17.02;92.00;100070.59;5094641;28;20024;-79
2022/06/12 02:21:52;;;;;;;8.85;7.40;;;;;;;16.99;92.09;100069.03;5094972;28;20043;-79
2022/06/12 02:24:42;;;;;;;12.15;8.02;;;;;;;17.02;91.99;100076.69;5076227;28;20364;-79
2022/06/12 02:27:23;;;;;;;10.40;8.05;;;;;;;16.96;92.00;100070.06;5094501;28;20020;-79
2022/06/12 02:29:55;;;;;;;9.90;8.23;;;;;;;16.95;92.01;100067.53;5094401;28;20056;-79
2022/06/12 02:32:31;;;;;;;10.82;8.30;;;;;;;17.00;92.25;100069.88;5094476;28;20039;-79
2022/06/12 02:35:20;;;;;;;11.60;9.07;;;;;;;17.03;92.14;100078.41;5094518;28;20028;-79
2022/06/12 02:37:56;;;;;;;12.90;9.07;;;;;;;17.00;92.01;100064.59;5094793;28;20032;-79
2022/06/12 02:40:31;;;;;;;11.18;8.88;;;;;;;17.04;92.28;100074.81;5094215;28;20027;-79
2022/06/12 02:43:01;;;;;;;11.07;9.30;;;;;;;17.03;92.42;100081.03;5076217;28;20501;-79
2022/06/12 02:45:35;;;;;;;10.60;8.80;;;;;;;17.03;92.36;100080.19;5093942;28;20669;-79
2022/06/12 02:48:00;;;;;;;12.15;8.60;;;;;;;17.03;92.66;100077.56;5092960;28;20020;-79
2022/06/12 02:50:31;;;;;;;10.32;9.20;;;;;;;17.01;92.51;100074.19;5094101;28;20020;-79
2022/06/12 02:53:18;;;;;;;11.07;8.32;;;;;;;16.94;92.86;100066.72;5094219;28;20031;-79
2022/06/12 02:55:54;;;;;;;10.45;8.80;;;;;;;17.03;92.85;100083.66;5093906;28;20097;-79
2022/06/12 02:58:32;;;;;;;11.48;8.90;;;;;;;17.03;92.92;100083.66;5093973;28;20059;-79
2022/06/12 03:01:19;;;;;;;9.43;8.43;;;;;;;17.04;92.67;100084.50;5093983;28;20020;-79
2022/06/12 03:04:05;;;;;;;10.43;9.25;;;;;;;17.03;92.38;100078.41;5093739;28;20127;-79
2022/06/12 03:06:31;;;;;;;15.57;10.27;;;;;;;16.94;92.65;100069.34;5091827;28;20483;-79
2022/06/12 03:08:58;;;;;;;10.65;9.25;;;;;;;16.98;93.05;100069.09;5093918;28;20038;-79
2022/06/12 03:11:28;;;;;;;9.63;8.63;;;;;;;17.01;93.21;100069.75;5093509;28;20479;-79
2022/06/12 03:13:56;;;;;;;11.40;8.45;;;;;;;16.97;93.50;100065.63;5093767;28;20024;-79
2022/06/12 03:16:28;;;;;;;10.82;8.65;;;;;;;17.03;93.99;100072.31;5093427;28;20467;-79
2022/06/12 03:18:55;;;;;;;9.75;8.75;;;;;;;17.05;94.34;100087.03;5093759;28;20031;-79
2022/06/12 03:21:42;;;;;;;10.82;7.88;;;;;;;17.04;95.01;100079.25;5093543;28;20035;-79
2022/06/12 03:24:24;;;;;;;10.93;8.73;;;;;;;17.08;95.15;100094.72;5093593;28;20115;-79
2022/06/12 03:27:04;;;;;;;14.38;8.73;;;;;;;17.08;95.01;100081.56;5093436;28;20479;-79
2022/06/12 03:29:48;;;;;;;11.35;8.48;;;;;;;17.09;94.44;100080.63;5092072;28;20032;-79
2022/06/12 03:32:58;;;;;;;9.63;8.40;;;;;;;17.12;94.57;100075.16;5093176;28;20479;-79
2022/06/12 03:36:00;;;;;;;11.40;8.32;;;;;;;17.17;94.00;100080.09;5030483;28;20541;-79
2022/06/12 03:38:36;;;;;;;11.95;8.82;;;;;;;17.22;93.77;100075.38;5046931;28;20037;-79
2022/06/12 03:41:34;;;;;;;9.27;8.30;;;;;;;17.29;93.74;100083.72;5030025;28;20041;-79
2022/06/12 03:44:18;;;;;;;9.35;7.82;;;;;;;17.34;93.26;100079.81;5010784;28;20116;-79
2022/06/12 03:46:43;;;;;;;10.77;7.80;;;;;;;17.42;91.84;100072.22;5010619;28;20176;-79
2022/06/12 03:49:20;;;;;;;13.30;9.00;;;;;;;17.50;92.52;100070.88;5010742;28;20109;-79
2022/06/12 03:51:56;;;;;;;10.13;8.02;;;;;;;17.47;91.90;100061.38;5010628;28;20038;-79
2022/06/12 03:54:37;;;;;;;11.02;8.95;;;;;;;17.60;91.91;100078.03;5010244;28;20555;-80
2022/06/12 04:00:16;;;;;;;10.25;7.78;;;;;;;17.78;89.14;100080.34;5010611;28;20085;-79
2022/06/12 04:02:48;;;;;;;13.20;8.02;;;;;;;17.82;88.21;100063.38;4993950;28;20366;-79
2022/06/12 04:05:30;;;;;;;10.70;8.18;;;;;;;17.93;87.88;100068.75;5010217;28;20042;-79
2022/06/12 04:07:59;;;;;;;8.30;7.47;;;;;;;17.97;87.06;100072.03;5010361;28;20037;-79
2022/06/12 04:10:28;;;;;;;11.10;8.82;;;;;;;17.98;89.08;100073.69;5016822;28;20038;-79
2022/06/12 04:12:54;;;;;;;9.90;8.90;;;;;;;17.95;89.86;100078.25;5029790;28;20041;-79
2022/06/12 04:15:26;;;;;;;9.68;8.35;;;;;;;17.93;90.02;100069.59;5029797;28;20417;-79
2022/06/12 04:17:51;;;;;;;10.68;8.05;;;;;;;18.01;90.51;100070.84;5013368;28;20541;-79
2022/06/12 04:20:25;;;;;;;9.27;8.32;;;;;;;18.21;89.30;100070.28;5078926;28;20119;-79
2022/06/12 04:22:54;;;;;;;13.15;8.70;;;;;;;18.32;88.06;100075.59;5091254;28;20036;-79
2022/06/12 04:25:32;;;;;;;10.25;8.60;;;;;;;18.44;87.71;100080.00;5092138;28;20048;-79
2022/06/12 04:27:58;;;;;;;9.32;8.27;;;;;;;19.11;86.40;100083.94;5092493;28;20475;-79
2022/06/12 04:30:29;;;;;;;10.13;7.90;;;;;;;20.63;79.31;100067.63;5092234;28;20031;-79
2022/06/12 04:33:18;;;;;;;10.30;7.70;;;;;;;21.45;73.29;100078.47;5074246;28;20051;-79
2022/06/12 04:35:50;;;;;;;9.48;6.78;;;;;;;21.57;71.62;100077.41;5092344;28;20047;-79
2022/06/12 04:38:16;;;;;;;12.00;7.13;;;;;;;21.40;71.07;100085.94;5092051;28;20390;-80
2022/06/12 04:40:41;;;;;;;8.02;6.40;;;;;;;21.34;71.42;100074.06;5074103;28;20020;-79
2022/06/12 04:43:07;;;;;;;7.72;6.70;;;;;;;21.19;71.27;100080.63;5092306;28;20059;-79
2022/06/12 04:45:33;;;;;;;8.07;6.03;;;;;;;21.00;72.02;100085.78;5092015;28;20410;-79
2022/06/12 04:47:58;;;;;;;8.05;7.20;;;;;;;20.93;72.56;100086.28;5092049;28;20081;-79
2022/06/12 04:50:24;;;;;;;9.82;6.97;;;;;;;20.75;72.77;100074.56;5092032;28;20368;-79
2022/06/12 04:52:49;;;;;;;9.32;7.28;;;;;;;20.81;73.37;100086.47;5092196;28;20028;-79
2022/06/12 04:55:15;;;;;;;7.25;6.55;;;;;;;20.80;73.30;100085.63;5090792;28;20024;-79
2022/06/12 04:57:40;;;;;;;7.88;6.88;;;;;;;20.87;73.71;100086.81;5073728;28;20028;-79
2022/06/12 05:00:07;;;;;;;8.35;6.88;;;;;;;21.12;72.63;100075.00;5092093;28;20020;-79
2022/06/12 05:02:33;;;;;;;8.75;6.65;;;;;;;21.17;72.10;100086.06;5091925;28;20035;-79
2022/06/12 05:04:58;;;;;;;10.82;7.63;;;;;;;21.29;71.98;100083.34;5091786;28;20522;-79
2022/06/12 05:07:24;;;;;;;9.57;6.85;;;;;;;21.37;71.32;100087.06;5073699;28;20024;-79
2022/06/12 05:09:49;;;;;;;7.18;6.05;;;;;;;21.38;70.77;100099.34;5092073;28;20039;-79
2022/06/12 05:12:15;;;;;;;8.75;6.88;;;;;;;21.91;70.62;100093.91;5091806;28;20027;-79
2022/06/12 05:14:42;;;;;;;7.93;6.30;;;;;;;22.61;65.93;100088.66;5091970;28;20115;-79
2022/06/12 05:17:12;;;;;;;9.10;6.53;;;;;;;22.65;66.11;100090.06;5091831;28;20024;-80
2022/06/12 05:19:39;;;;;;;7.75;6.50;;;;;;;22.90;64.65;100089.56;5091730;28;20028;-79
2022/06/12 05:22:06;;;;;;;7.47;6.63;;;;;;;22.76;64.80;100100.56;5091977;28;20023;-79
2022/06/12 05:24:32;;;;;;;8.60;6.80;;;;;;;22.63;65.10;100097.34;5091667;28;20113;-79
2022/06/12 05:26:59;;;;;;;8.80;6.72;;;;;;;22.66;65.07;100091.75;5091739;28;20060;-79
2022/06/12 05:29:30;;;;;;;7.15;5.93;;;;;;;22.67;65.20;100099.59;5073421;28;20036;-79
2022/06/12 05:31:57;;;;;;;8.48;6.40;;;;;;;22.61;65.51;100093.97;5091590;28;20020;-79
2022/06/12 05:34:25;;;;;;;8.02;6.88;;;;;;;22.73;65.34;100094.69;5091640;28;20028;-79
2022/06/12 05:36:51;;;;;;;11.95;6.75;;;;;;;23.05;65.02;100091.78;5091800;28;20064;-79
2022/06/12 05:39:18;;;;;;;10.88;6.60;;;;;;;23.64;62.86;100088.91;5091339;28;20395;-79
2022/06/12 05:41:44;;;;;;;7.90;6.05;;;;;;;23.96;61.87;100097.47;5091457;28;20020;-79
2022/06/12 05:44:10;;;;;;;8.15;6.75;;;;;;;24.69;60.76;100098.34;5073681;28;20039;-79
2022/06/12 05:46:35;;;;;;;10.48;6.63;;;;;;;25.51;57.69;100097.22;5089653;28;20387;-80
2022/06/12 05:49:01;;;;;;;8.23;6.57;;;;;;;25.82;55.55;100102.09;5091708;28;20059;-80
2022/06/12 05:51:27;;;;;;;6.63;5.90;;;;;;;25.70;55.08;100100.66;5091769;28;20533;-80
2022/06/12 05:53:52;;;;;;;9.48;6.22;;;;;;;25.80;54.65;100104.94;5091609;28;20035;-79
2022/06/12 05:56:20;;;;;;;7.75;6.28;;;;;;;25.76;54.43;100092.88;5091459;28;20031;-79
2022/06/12 05:58:46;;;;;;;6.00;5.18;;;;;;;25.86;54.95;100101.63;5091291;28;20516;-79
2022/06/12 06:01:15;;;;;;;8.20;6.18;;;;;;;25.90;54.34;100101.31;5091325;28;20099;-79
2022/06/12 06:03:41;;;;;;;8.80;6.18;;;;;;;25.70;54.67;100087.31;5091037;28;20599;-80
2022/06/12 06:06:08;;;;;;;8.07;5.93;;;;;;;25.71;55.38;100105.03;5094638;28;20472;-77
2022/06/12 06:08:34;;;;;;;10.52;6.40;;;;;;;25.65;55.46;100095.81;5094717;28;20454;-77
2022/06/12 06:10:59;;;;;;;6.80;5.88;;;;;;;25.81;54.81;100097.75;5094985;28;20078;-79
2022/06/12 06:13:25;;;;;;;6.68;5.60;;;;;;;25.89;54.68;100095.13;5094730;28;20076;-80
2022/06/12 06:15:51;;;;;;;5.90;5.10;;;;;;;26.14;54.32;100106.75;5076626;28;20507;-80
2022/06/12 06:18:18;;;;;;;7.78;5.85;;;;;;;26.29;54.06;100102.47;5076710;28;20032;-80
2022/06/12 06:20:44;;;;;;;7.47;5.78;;;;;;;26.58;53.66;100106.59;5076653;28;20488;-80
2022/06/12 06:23:10;;;;;;;6.50;5.90;;;;;;;26.84;52.99;100107.31;5076750;28;20516;-80
2022/06/12 06:25:37;;;;;;;9.48;6.18;;;;;;;27.09;51.78;100109.97;5094511;28;20032;-80
2022/06/12 06:28:04;;;;;;;6.15;5.22;;;;;;;27.17;51.25;100107.34;5094501;28;20028;-77
2022/06/12 06:30:29;;;;;;;6.15;5.35;;;;;;;27.39;50.81;100102.31;5094347;28;20028;-79
2022/06/12 06:32:56;;;;;;;6.05;5.13;;;;;;;28.11;48.77;100119.25;5094763;28;20028;-78
2022/06/12 06:35:22;;;;;;;6.70;4.70;;;;;;;28.39;47.05;100116.94;5094681;28;20078;-80
2022/06/12 06:37:49;;;;;;;6.22;5.03;;;;;;;28.39;46.85;100111.59;5094479;28;20123;-80
2022/06/12 06:40:16;;;;;;;5.13;4.63;;;;;;;28.64;46.19;100122.19;5094385;28;20530;-80
2022/06/12 06:42:41;;;;;;;5.28;4.47;;;;;;;28.58;45.45;100113.84;5094475;28;20028;-80
2022/06/12 06:47:51;;;;;;;6.55;4.95;;;;;;;29.52;43.95;100116.31;5094193;28;20039;-80
2022/06/12 06:50:19;;;;;;;5.57;4.63;;;;;;;30.33;41.67;100117.25;5094300;28;20398;-80
2022/06/12 06:52:44;;;;;;;5.82;4.35;;;;;;;33.31;37.24;100118.34;5093994;28;20070;-80
2022/06/12 06:55:11;;;;;;;7.00;5.22;;;;;;;35.44;31.34;100121.81;5075920;28;20449;-78
2022/06/12 06:57:44;;;;;;;7.53;5.10;;;;;;;36.07;29.87;100122.63;5093839;28;20418;-78
2022/06/12 07:00:14;;;;;;;6.50;4.45;;;;;;;37.53;27.62;100118.63;5094473;28;20058;-78
2022/06/12 07:02:40;;;;;;;7.15;4.25;;;;;;;41.09;23.33;100119.13;5093812;28;20421;-79
2022/06/12 07:05:07;;;;;;;5.15;3.97;;;;;;;44.22;19.63;100111.16;5094238;28;20024;-79
2022/06/12 07:07:34;;;;;;;4.97;4.05;;;;;;;46.48;17.39;100119.66;5075340;28;20028;-79
2022/06/12 07:10:01;;;;;;;5.53;3.53;;;;;;;47.72;15.05;100112.59;5093757;28;20024;-79
2022/06/12 07:12:26;;;;;;;5.20;3.80;;;;;;;48.40;14.61;100107.28;5093677;28;20031;-78
2022/06/12 07:14:52;;;;;;;6.50;3.78;;;;;;;49.23;14.29;100115.19;5093896;28;20054;-78
2022/06/12 07:17:17;;;;;;;4.47;3.65;;;;;;;49.99;13.19;100104.72;5092617;28;20028;-78
2022/06/12 07:19:43;;;;;;;4.55;3.35;;;;;;;50.53;13.43;100104.44;5093514;28;20020;-78
2022/06/12 07:22:09;;;;;;;4.03;2.92;;;;;;;51.40;12.05;100103.09;5093653;28;20475;-78
2022/06/12 07:24:34;;;;;;;3.85;2.70;;;;;;;51.83;11.30;100104.81;5093210;28;20024;-78
2022/06/12 07:26:59;;;;;;;2.83;2.58;;;;;;;52.33;11.23;100095.66;5093587;28;20081;-79
2022/06/12 07:29:25;;;;;;;3.00;2.53;;;;;;;52.23;10.41;100095.28;5093656;28;20068;-78
2022/06/12 07:31:51;;;;;;;3.10;2.53;;;;;;;52.19;10.54;100095.13;5093395;28;20032;-79
2022/06/12 07:34:17;;;;;;;2.92;2.30;;;;;;;52.79;9.99;100082.63;5093461;28;20110;-79
2022/06/12 07:36:46;;;;;;;3.97;3.10;;;;;;;53.27;10.86;100083.06;5093206;28;20106;-79
2022/06/12 07:39:16;;;;;;;4.25;2.45;;;;;;;53.78;10.04;100089.13;5093135;28;20032;-79
2022/06/12 07:41:43;;;;;;;3.22;2.10;;;;;;;53.86;9.50;100088.16;5092982;28;20121;-79
2022/06/12 07:44:10;;;;;;;3.30;2.20;;;;;;;53.72;9.57;100077.38;5075043;28;20020;-78
2022/06/12 07:46:35;;;;;;;3.47;2.40;;;;;;;54.40;9.30;100076.63;5093201;28;20032;-78
2022/06/12 07:49:01;;;;;;;2.10;2.00;;;;;;;54.36;8.62;100081.28;5093133;28;20020;-79
2022/06/12 07:51:26;;;;;;;2.47;1.90;;;;;;;54.43;8.43;100081.50;5093001;28;20032;-79
2022/06/12 07:53:53;;;;;;;2.53;1.98;;;;;;;54.05;8.15;100066.06;5092688;28;20035;-79
2022/06/12 07:56:21;;;;;;;2.10;1.90;;;;;;;54.02;9.01;100065.94;5092834;28;20433;-79
2022/06/12 07:58:46;;;;;;;;;;;;;;;54.25;8.55;100069.84;5093556;28;20416;-79
2022/06/12 08:01:17;;;;;;;2.23;1.77;;;;;;;54.52;8.36;100059.84;5092845;28;19962;-79
2022/06/12 08:03:42;;;;;;;2.13;1.92;;;;;;;54.35;8.54;100059.34;5092425;28;20278;-79
2022/06/12 08:06:08;;;;;;;2.63;2.08;;;;;;;53.81;8.67;100060.53;5092730;28;20022;-79
2022/06/12 08:08:34;;;;;;;2.35;1.98;;;;;;;53.63;8.05;100056.41;5092622;28;20471;-79
2022/06/12 08:11:01;;;;;;;1.88;1.70;;;;;;;53.37;8.11;100059.53;5092875;28;20027;-78
2022/06/12 08:13:27;;;;;;;1.92;1.70;;;;;;;53.20;8.07;100057.78;5092785;28;20024;-78
2022/06/12 08:15:54;;;;;;;2.28;1.63;;;;;;;49.28;9.87;100055.00;5092733;28;20024;-78
2022/06/12 08:18:20;;;;;;;2.08;1.88;;;;;;;44.49;12.58;100045.63;5092620;28;20035;-78
2022/06/12 08:20:50;;;;;;;2.05;1.80;;;;;;;40.82;15.00;100035.28;5092216;28;20020;-78
2022/06/12 08:23:26;;;;;;;5.03;4.05;;;;;;;37.88;17.22;100028.91;5092662;28;20024;-78
2022/06/12 08:26:05;;;;;;;2.28;2.00;;;;;;;35.89;19.47;100031.28;5092354;28;20030;-77
2022/06/12 08:28:35;;;;;;;1.65;1.55;;;;;;;34.42;21.01;100026.34;5091914;28;20024;-77
2022/06/12 08:31:03;;;;;;;2.03;1.85;;;;;;;33.37;22.17;100036.47;5074139;28;20031;-78
2022/06/12 08:33:29;;;;;;;2.70;2.00;;;;;;;32.63;23.41;100039.41;5092100;28;20063;-77
2022/06/12 08:35:54;;;;;;;4.28;2.50;;;;;;;31.88;25.06;100033.97;5092230;28;20462;-77
2022/06/12 08:38:20;;;;;;;3.22;2.15;;;;;;;31.56;25.94;100032.75;5074162;28;20032;-77
2022/06/12 08:41:12;;;;;;;2.00;1.90;;;;;;;31.19;26.61;100034.78;5092055;28;20064;-77
2022/06/12 08:44:15;;;;;;;2.25;2.05;;;;;;;30.75;26.62;100035.03;5091910;28;20023;-77
2022/06/12 08:46:53;;;;;;;2.47;1.90;;;;;;;30.40;27.34;100032.19;4973526;28;20070;-77
2022/06/12 08:50:11;;;;;;;2.33;2.10;;;;;;;30.02;27.33;100037.72;4990333;28;20545;-77
2022/06/12 08:52:48;;;;;;;1.92;1.73;;;;;;;29.82;28.27;100025.91;4894349;29;20077;-77
2022/06/12 08:55:35;;;;;;;1.95;1.73;;;;;;;29.81;28.10;100022.38;4894400;29;20430;-77
2022/06/12 08:58:29;;;;;;;3.83;2.17;;;;;;;29.68;27.97;100034.81;4894444;29;20135;-77
2022/06/12 09:00:54;;;;;;;3.28;1.90;;;;;;;29.54;28.42;100031.91;4894340;29;20059;-78
2022/06/12 09:03:25;;;;;;;2.00;1.90;;;;;;;29.56;28.06;100016.47;4894142;29;20060;-77
2022/06/12 09:06:19;;;;;;;2.42;1.55;;;;;;;29.54;28.26;100020.34;4894254;29;20172;-77
2022/06/12 09:09:03;;;;;;;2.17;1.70;;;;;;;29.49;27.89;100028.94;4894184;29;20620;-77
2022/06/12 09:11:34;;;;;;;3.17;1.90;;;;;;;29.53;28.31;100029.41;4894426;29;20509;-77
2022/06/12 09:14:17;;;;;;;1.70;1.60;;;;;;;29.54;28.14;100025.72;4894637;29;20549;-77
2022/06/12 09:16:43;;;;;;;1.80;1.70;;;;;;;29.67;28.92;100022.41;4893821;29;20073;-77
2022/06/12 09:19:14;;;;;;;1.73;1.63;;;;;;;29.70;27.88;100017.47;4894045;29;20033;-77
2022/06/12 09:21:48;;;;;;;3.08;1.80;;;;;;;29.60;27.72;100008.06;4894151;29;20438;-77
2022/06/12 09:24:43;;;;;;;4.95;2.05;;;;;;;29.53;31.26;100015.97;4956526;28;20038;-74
2022/06/12 09:27:17;;;;;;;2.90;2.00;;;;;;;29.34;30.73;100007.47;4893912;29;20446;-76
2022/06/12 09:29:51;;;;;;;4.47;2.10;;;;;;;29.24;29.77;100009.56;4960298;28;20094;-77
2022/06/12 09:32:32;;;;;;;2.13;1.83;;;;;;;28.87;28.62;100001.56;4989542;28;20035;-76
2022/06/12 09:35:31;;;;;;;6.38;2.00;;;;;;;28.61;30.15;99994.72;4989370;28;20061;-75
2022/06/12 09:38:23;;;;;;;2.70;2.10;;;;;;;28.58;30.45;100009.31;4989324;28;20387;-75
2022/06/12 09:41:01;;;;;;;2.22;1.90;;;;;;;28.76;31.29;100006.31;4992475;28;20050;-75
2022/06/12 09:43:35;;;;;;;2.65;1.70;;;;;;;28.80;30.52;99996.91;4993693;28;20105;-75
2022/06/12 09:46:17;;;;;;;2.33;1.88;;;;;;;28.87;29.90;99990.84;4993379;28;20042;-75
2022/06/12 09:48:42;;;;;;;2.22;1.90;;;;;;;28.83;29.56;99991.19;4993233;28;20091;-76
2022/06/12 09:51:27;;;;;;;2.35;1.70;;;;;;;28.95;30.31;99994.28;4992642;28;20086;-75
2022/06/12 09:54:07;;;;;;;1.90;1.70;;;;;;;29.10;30.48;99988.94;4990033;28;20034;-76
2022/06/12 09:56:38;;;;;;;;;;;;;;;29.27;31.04;99987.75;4993176;28;20068;-76
2022/06/12 09:59:45;;;;;;;3.95;2.10;;;;;;;29.49;31.26;99987.84;4993073;28;19917;-76
2022/06/12 10:02:18;;;;;;;4.93;2.33;;;;;;;29.66;30.77;99988.50;4973540;28;20031;-76
2022/06/12 10:05:13;;;;;;;3.13;1.90;;;;;;;29.88;30.55;99989.44;5022815;28;20526;-76
2022/06/12 10:07:57;;;;;;;2.05;1.70;;;;;;;30.06;30.37;99976.41;4992609;28;20038;-76
2022/06/12 10:10:37;;;;;;;2.63;1.95;;;;;;;30.28;29.18;99982.66;4992128;28;20556;-76
2022/06/12 10:13:09;;;;;;;1.80;1.70;;;;;;;30.50;29.31;99984.31;4992624;28;20594;-76
2022/06/12 10:15:43;;;;;;;3.20;1.70;;;;;;;30.39;28.12;99971.41;4992357;28;20529;-76
2022/06/12 10:18:28;;;;;;;2.10;1.80;;;;;;;30.06;27.88;99966.50;4992085;28;20139;-76
2022/06/12 10:21:00;;;;;;;2.00;1.90;;;;;;;29.80;28.62;99976.94;4990843;28;20101;-77
2022/06/12 10:23:26;;;;;;;2.20;2.00;;;;;;;29.68;29.51;99973.06;4974530;28;20097;-76
2022/06/12 10:25:56;;;;;;;1.92;1.77;;;;;;;29.56;28.91;99973.53;4991102;28;20042;-75
2022/06/12 10:28:30;;;;;;;2.10;1.90;;;;;;;29.48;29.88;99970.09;4992419;28;20030;-75
2022/06/12 10:31:10;;;;;;;2.55;2.25;;;;;;;29.51;30.98;99964.34;4992201;28;20041;-75
2022/06/12 10:33:42;;;;;;;2.60;2.13;;;;;;;29.50;30.76;99966.22;4991354;28;20037;-75
2022/06/12 10:36:19;;;;;;;2.35;2.00;;;;;;;29.58;30.81;99957.22;5011251;28;20077;-75
2022/06/12 10:38:45;;;;;;;4.18;1.92;;;;;;;29.57;29.56;99955.56;5031584;28;20117;-75
2022/06/12 10:41:28;;;;;;;2.10;1.85;;;;;;;29.43;29.05;99945.66;5032113;28;20120;-75
2022/06/12 10:43:56;;;;;;;2.58;1.70;;;;;;;29.37;29.44;99930.28;5058844;28;20040;-75
2022/06/12 10:46:32;;;;;;;2.20;2.00;;;;;;;29.46;28.98;99946.13;5094249;28;20032;-74
2022/06/12 10:49:17;;;;;;;2.50;1.90;;;;;;;29.42;28.99;99942.16;5094292;28;20060;-75
2022/06/12 10:51:45;;;;;;;2.75;2.33;;;;;;;29.54;29.63;99943.34;5093804;28;20133;-75
2022/06/12 10:54:23;;;;;;;2.20;1.92;;;;;;;29.51;30.12;99932.16;5093605;28;20418;-75
2022/06/12 10:57:10;;;;;;;3.88;2.22;;;;;;;29.50;30.11;99941.22;5092401;28;20036;-74
2022/06/12 10:59:55;;;;;;;2.83;2.15;;;;;;;29.52;30.79;99939.19;5090417;28;20454;-75
2022/06/12 11:02:42;;;;;;;2.20;1.98;;;;;;;29.60;30.74;99939.09;5090814;28;20025;-75
2022/06/12 11:05:08;;;;;;;2.40;2.20;;;;;;;29.83;30.19;99938.94;5091701;28;20035;-75
2022/06/12 11:07:33;;;;;;;1.88;1.77;;;;;;;30.17;30.21;99935.66;5089643;28;20327;-75
2022/06/12 11:10:20;;;;;;;3.55;2.25;;;;;;;30.38;28.37;99925.88;5093305;28;20107;-76
2022/06/12 11:12:46;;;;;;;1.90;1.80;;;;;;;30.38;29.13;99929.41;5093676;28;20032;-75
2022/06/12 11:15:29;;;;;;;2.90;2.00;;;;;;;30.41;28.55;99926.34;5093662;28;20028;-76
2022/06/12 11:18:14;;;;;;;2.20;1.83;;;;;;;30.41;28.10;99920.97;5093359;28;20024;-75
2022/06/12 11:20:58;;;;;;;1.83;1.73;;;;;;;30.39;25.95;99917.66;5093663;28;20020;-76
2022/06/12 11:23:53;;;;;;;2.30;1.90;;;;;;;30.30;25.99;99916.13;5093716;28;20028;-76
2022/06/12 11:26:40;;;;;;;2.17;1.90;;;;;;;30.26;26.22;99917.53;5093582;28;20027;-75
2022/06/12 11:29:42;;;;;;;2.25;2.00;;;;;;;30.19;26.52;99905.91;5093671;28;20031;-75
2022/06/12 11:32:25;;;;;;;2.50;2.15;;;;;;;30.28;27.29;99910.94;5093509;28;20035;-75
2022/06/12 11:35:14;;;;;;;2.45;1.95;;;;;;;30.41;26.87;99912.91;5093372;28;20032;-75
2022/06/12 11:38:06;;;;;;;2.97;2.10;;;;;;;30.22;27.60;99900.16;5093454;28;20028;-75
2022/06/12 11:41:03;;;;;;;3.15;1.92;;;;;;;30.09;27.69;99908.88;4991366;28;20038;-75
2022/06/12 11:43:36;;;;;;;2.75;2.30;;;;;;;30.02;28.18;99903.44;4991377;28;20042;-75
2022/06/12 11:46:30;;;;;;;2.67;2.17;;;;;;;29.96;28.05;99898.84;4991005;28;20042;-75
2022/06/12 11:48:59;;;;;;;3.53;2.20;;;;;;;30.13;28.49;99896.72;4933074;29;20134;-75
2022/06/12 11:51:50;;;;;;;5.15;2.20;;;;;;;30.08;28.55;99893.75;4933240;29;20043;-75
2022/06/12 11:55:07;;;;;;;4.75;2.25;;;;;;;30.10;27.85;99888.22;4933018;29;20039;-75
2022/06/12 11:57:46;;;;;;;2.33;1.67;;;;;;;30.14;26.48;99878.75;4895266;29;20079;-75
2022/06/12 12:00:17;;;;;;;3.53;2.30;;;;;;;30.22;28.52;99882.16;4895457;29;20044;-75
2022/06/12 12:02:58;;;;;;;134.85;95.65;;;;;;;30.06;28.81;99882.38;4894406;29;20115;-76
2022/06/12 12:05:50;;;;;;;8.07;6.35;;;;;;;29.83;29.94;99888.78;4895061;29;20277;-75
2022/06/12 12:08:30;;;;;;;3.58;2.40;;;;;;;29.69;29.72;99878.09;4876345;29;20047;-75